Time,TemperatureF,DewpointF,PressureIn,WindDirection,WindDirectionDegrees,WindSpeedMPH,WindSpeedGustMPH,Humidity,HourlyPrecipIn,Conditions,Clouds,dailyrainin,SolarRadiationWatts/m^2,SoftwareType,DateUTC
2013-02-17 00:00:00,26.6,8.5,29.69,WNW,293,7.0,13.0,46,0.00,CLR,,0.00,0.0,WeatherDisplay:10.37,2013-02-17 05:00:00,
2013-02-17 00:05:00,26.4,8.4,29.69,WNW,303,15.0,15.0,46,0.00,CLR,,0.00,0.0,WeatherDisplay:10.37,2013-02-17 05:05:00,
2013-02-17 00:10:00,26.2,8.7,29.69,NW,320,9.2,9.2,47,0.00,CLR,,0.00,0.0,WeatherDisplay:10.37,2013-02-17 05:10:00,
2013-02-17 00:15:00,26.1,9.1,29.69,WSW,240,11.5,11.5,48,0.00,CLR,,0.00,0.0,WeatherDisplay:10.37,2013-02-17 05:15:00,
2013-02-17 00:20:00,26.0,8.5,29.69,WNW,285,6.9,6.9,47,0.00,CLR,,0.00,0.0,WeatherDisplay:10.37,2013-02-17 05:20:00,
2013-02-17 00:25:00,26.0,8.0,29.67,WNW,300,13.8,13.8,46,0.00,CLR,,0.00,0.0,WeatherDisplay:10.37,2013-02-17 05:25:00,
2013-02-17 00:30:00,25.9,8.9,29.67,West,274,13.8,13.8,48,0.00,CLR,,0.00,0.0,WeatherDisplay:10.37,2013-02-17 05:30:00,
2013-02-17 00:35:00,25.8,8.8,29.67,West,268,11.5,11.5,48,0.00,CLR,,0.00,0.0,WeatherDisplay:10.37,2013-02-17 05:35:00,
2013-02-17 00:41:00,25.7,8.7,29.67,WNW,299,9.2,9.2,48,0.00,CLR,,0.00,0.0,WeatherDisplay:10.37,2013-02-17 05:41:00,
2013-02-17 00:46:00,25.6,8.6,29.67,West,280,11.5,11.5,48,0.00,CLR,,0.00,0.0,WeatherDisplay:10.37,2013-02-17 05:46:00,
2013-02-17 00:51:00,25.6,8.6,29.67,West,277,12.0,12.0,48,0.00,CLR,,0.00,0.0,WeatherDisplay:10.37,2013-02-17 05:51:00,
2013-02-17 00:56:00,25.4,8.4,29.66,WNW,283,5.8,5.8,48,0.00,CLR,,0.00,0.0,WeatherDisplay:10.37,2013-02-17 05:56:00,
2013-02-17 01:01:00,25.4,8.9,29.66,NW,319,11.0,11.0,49,0.00,CLR,,0.00,0.0,WeatherDisplay:10.37,2013-02-17 06:01:00,
2013-02-17 01:06:00,25.3,8.8,29.66,NW,305,11.5,11.5,49,0.00,CLR,,0.00,0.0,WeatherDisplay:10.37,2013-02-17 06:06:00,
2013-02-17 01:11:00,25.2,8.7,29.64,WNW,290,11.5,11.5,49,0.00,CLR,,0.00,0.0,WeatherDisplay:10.37,2013-02-17 06:11:00,
2013-02-17 01:16:00,25.2,8.2,29.64,NW,315,11.5,11.5,48,0.00,CLR,,0.00,0.0,WeatherDisplay:10.37,2013-02-17 06:16:00,
2013-02-17 01:21:00,25.2,8.2,29.64,WNW,293,12.0,12.0,48,0.00,CLR,,0.00,0.0,WeatherDisplay:10.37,2013-02-17 06:21:00,
2013-02-17 01:26:00,25.1,8.1,29.63,WNW,285,11.0,11.0,48,0.00,CLR,,0.00,0.0,WeatherDisplay:10.37,2013-02-17 06:26:00,
2013-02-17 01:31:00,25.1,8.1,29.63,WNW,292,11.5,11.5,48,0.00,CLR,,0.00,0.0,WeatherDisplay:10.37,2013-02-17 06:31:00,
2013-02-17 01:36:00,25.1,8.1,29.63,SW,227,12.7,12.7,48,0.00,CLR,,0.00,0.0,WeatherDisplay:10.37,2013-02-17 06:36:00,
2013-02-17 01:41:00,25.0,8.0,29.61,WNW,283,10.4,10.4,48,0.00,CLR,,0.00,0.0,WeatherDisplay:10.37,2013-02-17 06:41:00,
2013-02-17 01:46:00,24.9,8.4,29.61,NW,309,12.7,12.7,49,0.00,CLR,,0.00,0.0,WeatherDisplay:10.37,2013-02-17 06:46:00,
2013-02-17 01:51:00,24.8,8.3,29.61,WNW,291,11.5,11.5,49,0.00,CLR,,0.00,0.0,WeatherDisplay:10.37,2013-02-17 06:51:00,
2013-02-17 01:56:00,24.8,7.9,29.62,NW,315,9.2,9.2,48,0.00,CLR,,0.00,0.0,WeatherDisplay:10.37,2013-02-17 06:56:00,
2013-02-17 02:01:00,24.8,7.9,29.62,NW,309,8.1,8.1,48,0.00,CLR,,0.00,0.0,WeatherDisplay:10.37,2013-02-17 07:01:00,
2013-02-17 02:06:00,24.8,8.3,29.62,WNW,285,11.5,11.5,49,0.00,CLR,,0.00,0.0,WeatherDisplay:10.37,2013-02-17 07:06:00,
2013-02-17 02:11:00,24.7,8.7,29.64,West,273,11.5,11.5,50,0.00,CLR,,0.00,0.0,WeatherDisplay:10.37,2013-02-17 07:11:00,
2013-02-17 02:16:00,24.6,9.0,29.64,WNW,294,10.4,10.4,51,0.00,CLR,,0.00,0.0,WeatherDisplay:10.37,2013-02-17 07:16:00,
2013-02-17 02:21:00,24.5,8.5,29.63,WNW,290,10.4,10.4,50,0.00,CLR,,0.00,0.0,WeatherDisplay:10.37,2013-02-17 07:21:00,
2013-02-17 02:26:00,24.4,8.4,29.63,WNW,297,11.5,11.5,50,0.00,CLR,,0.00,0.0,WeatherDisplay:10.37,2013-02-17 07:26:00,
2013-02-17 02:31:00,24.4,8.8,29.63,NW,307,6.9,6.9,51,0.00,CLR,,0.00,0.0,WeatherDisplay:10.37,2013-02-17 07:31:00,
2013-02-17 02:36:00,24.4,8.8,29.61,WNW,292,9.0,9.0,51,0.00,CLR,,0.00,0.0,WeatherDisplay:10.37,2013-02-17 07:36:00,
2013-02-17 02:41:00,24.3,8.7,29.61,NW,309,15.0,15.0,51,0.00,CLR,,0.00,0.0,WeatherDisplay:10.37,2013-02-17 07:41:00,
2013-02-17 02:46:00,24.2,9.1,29.61,WNW,296,10.4,10.4,52,0.00,CLR,,0.00,0.0,WeatherDisplay:10.37,2013-02-17 07:46:00,
2013-02-17 02:51:00,24.1,8.6,29.60,WNW,296,13.8,13.8,51,0.00,CLR,,0.00,0.0,WeatherDisplay:10.37,2013-02-17 07:51:00,
2013-02-17 02:56:00,24.0,8.9,29.60,WNW,293,11.5,11.5,52,0.00,CLR,,0.00,0.0,WeatherDisplay:10.37,2013-02-17 07:56:00,
2013-02-17 03:01:00,24.0,8.9,29.60,WNW,292,10.4,10.4,52,0.00,CLR,,0.00,0.0,WeatherDisplay:10.37,2013-02-17 08:01:00,
2013-02-17 03:06:00,24.0,8.9,29.59,West,281,15.0,15.0,52,0.00,CLR,,0.00,0.0,WeatherDisplay:10.37,2013-02-17 08:06:00,
2013-02-17 03:11:00,23.9,8.8,29.59,West,267,13.8,13.8,52,0.00,CLR,,0.00,0.0,WeatherDisplay:10.37,2013-02-17 08:11:00,
2013-02-17 03:16:00,23.8,9.1,29.59,West,281,15.0,15.0,53,0.00,CLR,,0.00,0.0,WeatherDisplay:10.37,2013-02-17 08:16:00,
2013-02-17 03:21:00,23.7,9.5,29.58,NW,304,13.8,13.8,54,0.00,CLR,,0.00,0.0,WeatherDisplay:10.37,2013-02-17 08:21:00,
2013-02-17 03:26:00,23.6,8.9,29.58,West,267,11.5,11.5,53,0.00,CLR,,0.00,0.0,WeatherDisplay:10.37,2013-02-17 08:26:00,
2013-02-17 03:31:00,23.6,9.4,29.58,WNW,296,7.0,7.0,54,0.00,CLR,,0.00,0.0,WeatherDisplay:10.37,2013-02-17 08:31:00,
2013-02-17 03:36:00,23.5,9.3,29.59,WNW,295,11.0,11.0,54,0.00,CLR,,0.00,0.0,WeatherDisplay:10.37,2013-02-17 08:36:00,
2013-02-17 03:41:00,23.5,8.9,29.59,WNW,290,6.9,6.9,53,0.00,CLR,,0.00,0.0,WeatherDisplay:10.37,2013-02-17 08:41:00,
2013-02-17 03:46:00,23.4,9.2,29.59,WNW,288,9.2,9.2,54,0.00,CLR,,0.00,0.0,WeatherDisplay:10.37,2013-02-17 08:46:00,
2013-02-17 03:51:00,23.4,8.8,29.58,NW,321,9.2,9.2,53,0.00,CLR,,0.00,0.0,WeatherDisplay:10.37,2013-02-17 08:51:00,
2013-02-17 03:56:00,23.4,9.2,29.58,West,269,6.9,6.9,54,0.00,CLR,,0.00,0.0,WeatherDisplay:10.37,2013-02-17 08:56:00,
2013-02-17 04:01:00,23.3,9.1,29.58,West,264,11.5,11.5,54,0.00,CLR,,0.00,0.0,WeatherDisplay:10.37,2013-02-17 09:01:00,
2013-02-17 04:06:00,23.3,9.5,29.56,West,274,9.2,9.2,55,0.00,CLR,,0.00,0.0,WeatherDisplay:10.37,2013-02-17 09:06:00,
2013-02-17 04:11:00,23.2,9.4,29.56,WNW,288,6.9,6.9,55,0.00,CLR,,0.00,0.0,WeatherDisplay:10.37,2013-02-17 09:11:00,
2013-02-17 04:16:00,23.1,9.3,29.56,WNW,296,11.5,11.5,55,0.00,CLR,,0.00,0.0,WeatherDisplay:10.37,2013-02-17 09:16:00,
2013-02-17 04:21:00,23.1,9.3,29.57,WNW,303,9.2,9.2,55,0.00,CLR,,0.00,0.0,WeatherDisplay:10.37,2013-02-17 09:21:00,
2013-02-17 04:26:00,23.0,9.2,29.57,WNW,294,11.5,11.5,55,0.00,CLR,,0.00,0.0,WeatherDisplay:10.37,2013-02-17 09:26:00,
2013-02-17 04:31:00,23.0,9.2,29.57,NW,309,9.2,9.2,55,0.00,CLR,,0.00,0.0,WeatherDisplay:10.37,2013-02-17 09:31:00,
2013-02-17 04:36:00,23.0,9.6,29.55,West,281,20.0,20.0,56,0.00,CLR,,0.00,0.0,WeatherDisplay:10.37,2013-02-17 09:36:00,
2013-02-17 04:41:00,23.1,9.7,29.55,NW,310,11.5,11.5,56,0.00,CLR,,0.00,0.0,WeatherDisplay:10.37,2013-02-17 09:41:00,
2013-02-17 04:46:00,23.1,9.7,29.55,WNW,294,17.3,17.3,56,0.00,CLR,,0.00,0.0,WeatherDisplay:10.37,2013-02-17 09:46:00,
2013-02-17 04:51:00,23.0,10.0,29.55,WNW,295,15.0,15.0,57,0.00,CLR,,0.00,0.0,WeatherDisplay:10.37,2013-02-17 09:51:00,
2013-02-17 04:56:00,22.9,10.3,29.55,WNW,288,14.0,14.0,58,0.00,CLR,,0.00,0.0,WeatherDisplay:10.37,2013-02-17 09:56:00,
2013-02-17 05:01:00,22.9,10.3,29.55,WNW,284,12.7,12.7,58,0.00,CLR,,0.00,0.0,WeatherDisplay:10.37,2013-02-17 10:01:00,
2013-02-17 05:06:00,22.7,10.5,29.52,West,277,6.9,6.9,59,0.00,CLR,,0.00,0.0,WeatherDisplay:10.37,2013-02-17 10:06:00,
2013-02-17 05:11:00,22.6,10.8,29.52,West,264,12.7,12.7,60,0.00,CLR,,0.00,0.0,WeatherDisplay:10.37,2013-02-17 10:11:00,
2013-02-17 05:16:00,22.5,11.1,29.52,West,277,15.0,15.0,61,0.00,CLR,,0.00,0.0,WeatherDisplay:10.37,2013-02-17 10:16:00,
2013-02-17 05:21:00,22.3,11.2,29.52,West,259,11.5,11.5,62,0.00,CLR,,0.00,0.0,WeatherDisplay:10.37,2013-02-17 10:21:00,
2013-02-17 05:26:00,22.1,11.8,29.52,WNW,296,10.4,10.4,64,0.00,CLR,,0.00,0.0,WeatherDisplay:10.37,2013-02-17 10:26:00,
2013-02-17 05:31:00,21.8,12.2,29.52,WNW,299,15.0,15.0,66,0.00,CLR,,0.00,0.0,WeatherDisplay:10.37,2013-02-17 10:31:00,
2013-02-17 05:36:00,21.6,12.7,29.50,WNW,298,12.7,12.7,68,0.00,CLR,,0.00,0.0,WeatherDisplay:10.37,2013-02-17 10:36:00,
2013-02-17 05:41:00,21.4,12.8,29.50,NW,316,12.7,12.7,69,0.00,CLR,,0.00,0.0,WeatherDisplay:10.37,2013-02-17 10:41:00,
2013-02-17 05:46:00,21.2,12.6,29.50,WNW,302,12.7,12.7,69,0.00,CLR,,0.00,0.0,WeatherDisplay:10.37,2013-02-17 10:46:00,
2013-02-17 05:51:00,21.1,12.8,29.50,WNW,290,12.0,12.0,70,0.00,CLR,,0.00,0.0,WeatherDisplay:10.37,2013-02-17 10:51:00,
2013-02-17 05:56:00,21.1,12.8,29.50,WNW,287,15.0,15.0,70,0.00,CLR,,0.00,0.0,WeatherDisplay:10.37,2013-02-17 10:56:00,
2013-02-17 06:01:00,21.1,12.5,29.50,WNW,293,12.7,12.7,69,0.00,CLR,,0.00,0.0,WeatherDisplay:10.37,2013-02-17 11:01:00,
2013-02-17 06:06:00,21.2,12.3,29.49,West,270,16.1,16.1,68,0.00,CLR,,0.00,0.0,WeatherDisplay:10.37,2013-02-17 11:06:00,
2013-02-17 06:11:00,21.2,12.3,29.49,NW,304,12.7,12.7,68,0.00,CLR,,0.00,0.0,WeatherDisplay:10.37,2013-02-17 11:11:00,
2013-02-17 06:16:00,21.3,12.0,29.49,NW,311,16.1,16.1,67,0.00,CLR,,0.00,0.0,WeatherDisplay:10.37,2013-02-17 11:16:00,
2013-02-17 06:21:00,21.3,12.0,29.48,West,260,15.0,15.0,67,0.00,CLR,,0.00,0.0,WeatherDisplay:10.37,2013-02-17 11:21:00,
2013-02-17 06:26:00,21.4,11.8,29.48,WNW,298,12.7,12.7,66,0.00,CLR,,0.00,0.0,WeatherDisplay:10.37,2013-02-17 11:26:00,
2013-02-17 06:31:00,21.5,11.9,29.48,WNW,298,11.5,11.5,66,0.00,CLR,,0.00,0.0,WeatherDisplay:10.37,2013-02-17 11:31:00,
2013-02-17 06:36:00,21.6,12.0,29.46,NNW,328,14.0,14.0,66,0.00,CLR,,0.00,0.0,WeatherDisplay:10.37,2013-02-17 11:36:00,
2013-02-17 06:41:00,21.6,12.3,29.46,WNW,284,19.6,19.6,67,0.00,CLR,,0.00,0.0,WeatherDisplay:10.37,2013-02-17 11:41:00,
2013-02-17 06:46:00,21.6,12.0,29.46,West,281,15.0,15.0,66,0.00,CLR,,0.00,0.0,WeatherDisplay:10.37,2013-02-17 11:46:00,
2013-02-17 06:51:00,21.6,12.3,29.44,West,268,19.6,19.6,67,0.00,CLR,,0.00,0.0,WeatherDisplay:10.37,2013-02-17 11:51:00,
2013-02-17 06:56:00,21.6,12.7,29.44,WNW,299,11.5,11.5,68,0.00,BKN,,0.00,5.0,WeatherDisplay:10.37,2013-02-17 11:56:00,
2013-02-17 07:01:00,21.5,12.9,29.44,WSW,252,13.8,13.8,69,0.00,BKN,,0.00,7.0,WeatherDisplay:10.37,2013-02-17 12:01:00,
2013-02-17 07:06:00,21.5,13.2,29.44,West,271,13.8,13.8,70,0.00,BKN,,0.00,11.0,WeatherDisplay:10.37,2013-02-17 12:06:00,
2013-02-17 07:11:00,21.4,13.1,29.44,WNW,286,12.7,12.7,70,0.00,BKN,,0.00,14.0,WeatherDisplay:10.37,2013-02-17 12:11:00,
2013-02-17 07:16:00,21.3,13.4,29.44,WNW,289,19.6,19.6,71,0.00,BKN,,0.00,16.0,WeatherDisplay:10.37,2013-02-17 12:16:00,
2013-02-17 07:21:00,21.3,13.4,29.43,WNW,298,13.8,13.8,71,0.00,BKN,,0.00,21.0,WeatherDisplay:10.37,2013-02-17 12:21:00,
2013-02-17 07:26:00,21.2,13.3,29.43,WNW,294,16.1,16.1,71,0.00,BKN,,0.00,23.0,WeatherDisplay:10.37,2013-02-17 12:26:00,
2013-02-17 07:32:00,21.1,13.2,29.43,WNW,286,11.0,11.0,71,0.00,BKN,,0.00,25.0,WeatherDisplay:10.37,2013-02-17 12:32:00,
2013-02-17 07:37:00,21.1,13.2,29.41,SE,128,18.4,18.4,71,0.00,BKN,,0.00,26.0,WeatherDisplay:10.37,2013-02-17 12:37:00,
2013-02-17 07:42:00,21.2,12.9,29.41,WNW,292,17.3,17.3,70,0.00,BKN,,0.00,30.0,WeatherDisplay:10.37,2013-02-17 12:42:00,
2013-02-17 07:47:00,21.3,12.7,29.41,West,266,11.5,11.5,69,0.00,BKN,,0.00,35.0,WeatherDisplay:10.37,2013-02-17 12:47:00,
2013-02-17 07:52:00,21.3,12.7,29.40,NW,317,13.8,13.8,69,0.00,BKN,,0.00,35.0,WeatherDisplay:10.37,2013-02-17 12:52:00,
2013-02-17 07:57:00,21.4,12.5,29.40,WNW,292,12.7,12.7,68,0.00,BKN,,0.00,33.0,WeatherDisplay:10.37,2013-02-17 12:57:00,
2013-02-17 08:02:00,21.5,12.2,29.40,WNW,290,16.1,16.1,67,0.00,BKN,,0.00,32.0,WeatherDisplay:10.37,2013-02-17 13:02:00,
2013-02-17 08:07:00,21.5,12.2,29.39,West,281,12.0,12.0,67,0.00,BKN,,0.00,33.0,WeatherDisplay:10.37,2013-02-17 13:07:00,
2013-02-17 08:12:00,21.6,12.3,29.39,WNW,283,16.1,16.1,67,0.00,BKN,,0.00,40.0,WeatherDisplay:10.37,2013-02-17 13:12:00,
2013-02-17 08:17:00,21.6,12.3,29.39,WSW,242,20.7,20.7,67,0.00,BKN,,0.00,42.0,WeatherDisplay:10.37,2013-02-17 13:17:00,
2013-02-17 08:22:00,21.6,12.3,29.37,WNW,300,12.7,12.7,67,0.00,BKN,,0.00,42.0,WeatherDisplay:10.37,2013-02-17 13:22:00,
2013-02-17 08:27:00,21.6,12.0,29.37,West,277,18.0,18.0,66,0.00,BKN,,0.00,47.0,WeatherDisplay:10.37,2013-02-17 13:27:00,
2013-02-17 08:32:00,21.6,12.3,29.37,WNW,293,16.0,16.0,67,0.00,BKN,,0.00,54.0,WeatherDisplay:10.37,2013-02-17 13:32:00,
2013-02-17 08:37:00,21.6,12.0,29.35,WNW,291,14.0,14.0,66,0.00,BKN,,0.00,62.0,WeatherDisplay:10.37,2013-02-17 13:37:00,
2013-02-17 08:42:00,21.6,12.0,29.35,West,273,13.8,13.8,66,0.00,BKN,,0.00,69.0,WeatherDisplay:10.37,2013-02-17 13:42:00,
2013-02-17 08:47:00,21.6,12.3,29.35,West,263,18.4,18.4,67,0.00,BKN,,0.00,76.0,WeatherDisplay:10.37,2013-02-17 13:47:00,
2013-02-17 08:52:00,21.7,12.4,29.35,West,276,6.9,6.9,67,0.00,BKN,,0.00,72.0,WeatherDisplay:10.37,2013-02-17 13:52:00,
2013-02-17 08:57:00,21.8,12.2,29.35,West,272,3.5,3.5,66,0.00,BKN,,0.00,74.0,WeatherDisplay:10.37,2013-02-17 13:57:00,
2013-02-17 09:02:00,21.8,11.8,29.35,West,275,12.7,12.7,65,0.00,BKN,,0.00,74.0,WeatherDisplay:10.37,2013-02-17 14:02:00,
2013-02-17 09:07:00,21.9,11.6,29.33,WNW,283,16.1,16.1,64,0.00,BKN,,0.00,77.0,WeatherDisplay:10.37,2013-02-17 14:07:00,
2013-02-17 09:12:00,22.0,11.3,29.33,NW,304,15.0,15.0,63,0.00,BKN,,0.00,79.0,WeatherDisplay:10.37,2013-02-17 14:12:00,
2013-02-17 09:17:00,22.2,11.1,29.33,WSW,254,15.0,15.0,62,0.00,BKN,,0.00,81.0,WeatherDisplay:10.37,2013-02-17 14:17:00,
2013-02-17 09:22:00,22.2,11.1,29.32,WNW,290,13.0,13.0,62,0.00,BKN,,0.00,88.0,WeatherDisplay:10.37,2013-02-17 14:22:00,
2013-02-17 09:27:00,22.2,11.1,29.32,West,272,15.0,15.0,62,0.00,BKN,,0.00,86.0,WeatherDisplay:10.37,2013-02-17 14:27:00,
2013-02-17 09:32:00,22.1,11.1,29.32,WNW,302,15.0,15.0,62,0.00,BKN,,0.00,86.0,WeatherDisplay:10.37,2013-02-17 14:32:00,
2013-02-17 09:37:00,22.1,11.1,29.32,West,277,17.3,17.3,62,0.00,BKN,,0.00,88.0,WeatherDisplay:10.37,2013-02-17 14:37:00,
2013-02-17 09:42:00,22.2,10.8,29.32,WNW,302,16.1,16.1,61,0.00,BKN,,0.00,91.0,WeatherDisplay:10.37,2013-02-17 14:42:00,
2013-02-17 09:47:00,22.2,10.8,29.32,WNW,286,13.8,13.8,61,0.00,BKN,,0.00,93.0,WeatherDisplay:10.37,2013-02-17 14:47:00,
2013-02-17 09:52:00,22.3,10.9,29.31,WNW,289,13.8,13.8,61,0.00,BKN,,0.00,95.0,WeatherDisplay:10.37,2013-02-17 14:52:00,
2013-02-17 09:57:00,22.3,10.9,29.31,WSW,239,21.9,21.9,61,0.00,BKN,,0.00,98.0,WeatherDisplay:10.37,2013-02-17 14:57:00,
2013-02-17 10:02:00,22.3,10.9,29.31,West,278,12.7,12.7,61,0.00,BKN,,0.00,107.0,WeatherDisplay:10.37,2013-02-17 15:02:00,
2013-02-17 10:07:00,22.4,10.6,29.31,West,265,11.5,11.5,60,0.00,BKN,,0.00,104.0,WeatherDisplay:10.37,2013-02-17 15:07:00,
2013-02-17 10:12:00,22.4,10.6,29.31,WNW,297,20.7,20.7,60,0.00,BKN,,0.00,104.0,WeatherDisplay:10.37,2013-02-17 15:12:00,
2013-02-17 10:17:00,22.4,10.6,29.31,West,275,15.0,15.0,60,0.00,BKN,,0.00,100.0,WeatherDisplay:10.37,2013-02-17 15:17:00,
2013-02-17 10:22:00,22.4,10.2,29.29,West,268,18.4,18.4,59,0.00,BKN,,0.00,100.0,WeatherDisplay:10.37,2013-02-17 15:22:00,
2013-02-17 10:27:00,22.4,10.2,29.29,West,281,19.6,19.6,59,0.00,BKN,,0.00,102.0,WeatherDisplay:10.37,2013-02-17 15:27:00,
2013-02-17 10:32:00,22.4,10.2,29.29,SW,218,20.7,20.7,59,0.00,BKN,,0.00,104.0,WeatherDisplay:10.37,2013-02-17 15:32:00,
2013-02-17 10:37:00,22.3,10.1,29.29,WNW,290,15.0,15.0,59,0.00,BKN,,0.00,105.0,WeatherDisplay:10.37,2013-02-17 15:37:00,
2013-02-17 10:42:00,22.3,10.1,29.29,WNW,294,18.4,18.4,59,0.00,BKN,,0.00,104.0,WeatherDisplay:10.37,2013-02-17 15:42:00,
2013-02-17 10:47:00,22.2,10.0,29.29,WNW,300,13.8,13.8,59,0.00,BKN,,0.00,105.0,WeatherDisplay:10.37,2013-02-17 15:47:00,
2013-02-17 10:52:00,22.2,10.8,29.29,WNW,292,19.6,19.6,61,0.00,BKN,,0.00,109.0,WeatherDisplay:10.37,2013-02-17 15:52:00,
2013-02-17 10:57:00,22.1,10.7,29.29,West,279,16.1,16.1,61,0.00,BKN,,0.00,114.0,WeatherDisplay:10.37,2013-02-17 15:57:00,
2013-02-17 11:02:00,22.0,10.6,29.29,WNW,290,21.9,21.9,61,0.00,BKN,,0.00,116.0,WeatherDisplay:10.37,2013-02-17 16:02:00,
2013-02-17 11:07:00,21.9,10.9,29.29,WNW,297,20.0,20.0,62,0.00,BKN,,0.00,120.0,WeatherDisplay:10.37,2013-02-17 16:07:00,
2013-02-17 11:12:00,21.8,10.8,29.29,WNW,282,18.4,18.4,62,0.00,BKN,,0.00,125.0,WeatherDisplay:10.37,2013-02-17 16:12:00,
2013-02-17 11:17:00,21.9,10.9,29.29,WNW,302,17.3,17.3,62,0.00,BKN,,0.00,128.0,WeatherDisplay:10.37,2013-02-17 16:17:00,
2013-02-17 11:22:00,21.8,11.1,29.28,West,259,20.7,20.7,63,0.00,BKN,,0.00,127.0,WeatherDisplay:10.37,2013-02-17 16:22:00,
2013-02-17 11:27:00,21.8,11.1,29.28,West,275,19.6,19.6,63,0.00,BKN,,0.00,130.0,WeatherDisplay:10.37,2013-02-17 16:27:00,
2013-02-17 11:32:00,21.7,11.0,29.28,West,281,13.8,13.8,63,0.00,BKN,,0.00,141.0,WeatherDisplay:10.37,2013-02-17 16:32:00,
2013-02-17 11:37:00,21.8,10.8,29.26,West,281,17.3,17.3,62,0.00,BKN,,0.00,144.0,WeatherDisplay:10.37,2013-02-17 16:37:00,
2013-02-17 11:42:00,21.8,10.8,29.26,West,277,24.2,24.2,62,0.00,BKN,,0.00,141.0,WeatherDisplay:10.37,2013-02-17 16:42:00,
2013-02-17 11:47:00,21.8,10.8,29.26,WNW,294,13.0,13.0,62,0.00,BKN,,0.00,137.0,WeatherDisplay:10.37,2013-02-17 16:47:00,
2013-02-17 11:52:00,21.8,10.8,29.26,WNW,291,6.9,6.9,62,0.00,BKN,,0.00,146.0,WeatherDisplay:10.37,2013-02-17 16:52:00,
2013-02-17 11:57:00,21.9,10.9,29.26,WNW,291,12.0,12.0,62,0.00,BKN,,0.00,153.0,WeatherDisplay:10.37,2013-02-17 16:57:00,
2013-02-17 12:02:00,22.0,11.0,29.26,WNW,286,14.0,14.0,62,0.00,BKN,,0.00,160.0,WeatherDisplay:10.37,2013-02-17 17:02:00,
2013-02-17 12:07:00,21.9,10.5,29.25,NW,315,20.7,20.7,61,0.00,BKN,,0.00,160.0,WeatherDisplay:10.37,2013-02-17 17:07:00,
2013-02-17 12:12:00,21.9,10.5,29.25,WNW,288,19.6,19.6,61,0.00,BKN,,0.00,158.0,WeatherDisplay:10.37,2013-02-17 17:12:00,
2013-02-17 12:17:00,21.9,10.5,29.25,WNW,300,24.2,24.2,61,0.00,BKN,,0.00,158.0,WeatherDisplay:10.37,2013-02-17 17:17:00,
2013-02-17 12:22:00,22.0,10.6,29.24,NNW,338,24.2,24.2,61,0.00,BKN,,0.00,162.0,WeatherDisplay:10.37,2013-02-17 17:22:00,
2013-02-17 12:27:00,22.0,10.2,29.24,WNW,299,20.7,20.7,60,0.00,BKN,,0.00,163.0,WeatherDisplay:10.37,2013-02-17 17:27:00,
2013-02-17 12:32:00,22.2,10.4,29.24,WNW,300,28.8,28.8,60,0.00,BKN,,0.00,167.0,WeatherDisplay:10.37,2013-02-17 17:32:00,
2013-02-17 12:37:00,22.2,10.4,29.24,West,275,15.0,15.0,60,0.00,BKN,,0.00,176.0,WeatherDisplay:10.37,2013-02-17 17:37:00,
2013-02-17 12:42:00,22.4,10.2,29.24,WNW,288,19.6,19.6,59,0.00,BKN,,0.00,188.0,WeatherDisplay:10.37,2013-02-17 17:42:00,
2013-02-17 12:47:00,22.5,9.9,29.24,West,280,21.9,21.9,58,0.00,BKN,,0.00,193.0,WeatherDisplay:10.37,2013-02-17 17:47:00,
2013-02-17 12:52:00,22.6,10.0,29.23,WNW,287,19.6,19.6,58,0.00,BKN,,0.00,202.0,WeatherDisplay:10.37,2013-02-17 17:52:00,
2013-02-17 12:57:00,22.7,10.1,29.23,West,275,25.3,25.3,58,0.00,BKN,,0.00,200.0,WeatherDisplay:10.37,2013-02-17 17:57:00,
2013-02-17 13:02:00,22.8,10.2,29.23,WNW,297,24.2,24.2,58,0.00,BKN,,0.00,193.0,WeatherDisplay:10.37,2013-02-17 18:02:00,
2013-02-17 13:07:00,22.9,10.3,29.21,NW,308,18.4,18.4,58,0.00,BKN,,0.00,207.0,WeatherDisplay:10.37,2013-02-17 18:07:00,
2013-02-17 13:12:00,23.0,10.0,29.21,WNW,294,23.0,23.0,57,0.00,BKN,,0.00,213.0,WeatherDisplay:10.37,2013-02-17 18:12:00,
2013-02-17 13:17:00,23.1,10.1,29.21,NW,324,17.3,17.3,57,0.00,BKN,,0.00,213.0,WeatherDisplay:10.37,2013-02-17 18:17:00,
2013-02-17 13:23:00,23.1,9.7,29.20,West,268,16.1,16.1,56,0.00,BKN,,0.00,218.0,WeatherDisplay:10.37,2013-02-17 18:23:00,
2013-02-17 13:28:00,23.2,9.8,29.20,WNW,300,19.6,19.6,56,0.00,BKN,,0.00,213.0,WeatherDisplay:10.37,2013-02-17 18:28:00,
2013-02-17 13:33:00,23.1,9.7,29.20,West,280,20.7,20.7,56,0.00,BKN,,0.00,199.0,WeatherDisplay:10.37,2013-02-17 18:33:00,
2013-02-17 13:38:00,23.2,9.8,29.20,West,280,23.0,23.0,56,0.00,BKN,,0.00,199.0,WeatherDisplay:10.37,2013-02-17 18:38:00,
2013-02-17 13:43:00,23.3,9.5,29.20,WNW,283,21.9,21.9,55,0.00,BKN,,0.00,199.0,WeatherDisplay:10.37,2013-02-17 18:43:00,
2013-02-17 13:48:00,23.2,9.8,29.20,WNW,287,17.3,17.3,56,0.00,BKN,,0.00,206.0,WeatherDisplay:10.37,2013-02-17 18:48:00,
2013-02-17 13:53:00,23.2,9.8,29.19,WNW,298,16.1,16.1,56,0.00,BKN,,0.00,202.0,WeatherDisplay:10.37,2013-02-17 18:53:00,
2013-02-17 13:58:00,23.3,9.5,29.19,West,266,20.7,20.7,55,0.00,BKN,,0.00,199.0,WeatherDisplay:10.37,2013-02-17 18:58:00,
2013-02-17 14:03:00,23.3,9.1,29.19,West,275,18.4,18.4,54,0.00,BKN,,0.00,195.0,WeatherDisplay:10.37,2013-02-17 19:03:00,
2013-02-17 14:08:00,23.3,9.1,29.20,West,278,18.4,18.4,54,0.00,BKN,,0.00,195.0,WeatherDisplay:10.37,2013-02-17 19:08:00,
2013-02-17 14:13:00,23.3,9.1,29.20,WNW,284,17.3,17.3,54,0.00,BKN,,0.00,199.0,WeatherDisplay:10.37,2013-02-17 19:13:00,
2013-02-17 14:18:00,23.3,9.1,29.20,West,269,13.8,13.8,54,0.00,BKN,,0.00,193.0,WeatherDisplay:10.37,2013-02-17 19:18:00,
2013-02-17 14:23:00,23.3,9.1,29.20,WSW,256,12.7,12.7,54,0.00,SCT,,0.00,197.0,WeatherDisplay:10.37,2013-02-17 19:23:00,
2013-02-17 14:28:00,23.4,9.6,29.20,WNW,294,11.5,11.5,55,0.00,SCT,,0.00,199.0,WeatherDisplay:10.37,2013-02-17 19:28:00,
2013-02-17 14:33:00,23.3,9.1,29.20,WNW,298,15.0,15.0,54,0.00,SCT,,0.00,202.0,WeatherDisplay:10.37,2013-02-17 19:33:00,
2013-02-17 14:38:00,23.2,9.0,29.20,SW,225,20.7,20.7,54,0.00,SCT,,0.00,195.0,WeatherDisplay:10.37,2013-02-17 19:38:00,
2013-02-17 14:43:00,23.0,8.8,29.20,NW,305,20.7,20.7,54,0.00,SCT,,0.00,174.0,WeatherDisplay:10.37,2013-02-17 19:43:00,
2013-02-17 14:48:00,22.8,9.0,29.20,West,268,24.2,24.2,55,0.00,BKN,,0.00,156.0,WeatherDisplay:10.37,2013-02-17 19:48:00,
2013-02-17 14:53:00,22.6,8.4,29.20,WNW,291,16.1,16.1,54,0.00,BKN,,0.00,144.0,WeatherDisplay:10.37,2013-02-17 19:53:00,
2013-02-17 14:58:00,22.6,8.0,29.20,West,275,24.2,24.2,53,0.00,BKN,,0.00,134.0,WeatherDisplay:10.37,2013-02-17 19:58:00,
2013-02-17 15:03:00,22.6,7.6,29.20,West,277,17.3,17.3,52,0.00,BKN,,0.00,127.0,WeatherDisplay:10.37,2013-02-17 20:03:00,
2013-02-17 15:08:00,22.6,7.2,29.20,WNW,295,15.0,15.0,51,0.00,BKN,,0.00,125.0,WeatherDisplay:10.37,2013-02-17 20:08:00,
2013-02-17 15:13:00,22.6,6.7,29.20,WNW,284,16.1,16.1,50,0.00,BKN,,0.00,128.0,WeatherDisplay:10.37,2013-02-17 20:13:00,
2013-02-17 15:18:00,22.6,6.7,29.20,WNW,292,13.8,13.8,50,0.00,SCT,,0.00,137.0,WeatherDisplay:10.37,2013-02-17 20:18:00,
2013-02-17 15:23:00,22.6,6.7,29.20,WNW,295,23.0,23.0,50,0.00,SCT,,0.00,142.0,WeatherDisplay:10.37,2013-02-17 20:23:00,
2013-02-17 15:28:00,22.6,6.3,29.20,NW,304,26.5,26.5,49,0.00,SCT,,0.00,139.0,WeatherDisplay:10.37,2013-02-17 20:28:00,
2013-02-17 15:33:00,22.7,6.8,29.20,West,264,12.0,12.0,50,0.00,SCT,,0.00,130.0,WeatherDisplay:10.37,2013-02-17 20:33:00,
2013-02-17 15:38:00,22.7,5.5,29.20,West,271,20.7,20.7,47,0.00,SCT,,0.00,116.0,WeatherDisplay:10.37,2013-02-17 20:38:00,
2013-02-17 15:43:00,22.6,4.9,29.20,WNW,289,19.0,19.0,46,0.00,SCT,,0.00,105.0,WeatherDisplay:10.37,2013-02-17 20:43:00,
2013-02-17 15:48:00,22.4,4.2,29.20,WSW,257,20.7,20.7,45,0.00,BKN,,0.00,84.0,WeatherDisplay:10.37,2013-02-17 20:48:00,
2013-02-17 15:53:00,22.2,5.9,29.21,SW,234,17.3,17.3,49,0.00,BKN,,0.00,69.0,WeatherDisplay:10.37,2013-02-17 20:53:00,
2013-02-17 15:58:00,22.1,3.5,29.21,NW,309,13.8,13.8,44,0.00,BKN,,0.00,54.0,WeatherDisplay:10.37,2013-02-17 20:58:00,
2013-02-17 16:03:00,21.9,3.8,29.21,SW,230,20.7,20.7,45,0.00,BKN,,0.00,44.0,WeatherDisplay:10.37,2013-02-17 21:03:00,
2013-02-17 16:08:00,21.7,3.6,29.22,WNW,300,26.5,26.5,45,0.00,BKN,,0.00,37.0,WeatherDisplay:10.37,2013-02-17 21:08:00,
2013-02-17 16:13:00,21.4,3.8,29.22,West,273,11.5,11.5,46,0.00,BKN,,0.00,33.0,WeatherDisplay:10.37,2013-02-17 21:13:00,
2013-02-17 16:18:00,21.3,3.7,29.22,West,267,20.7,20.7,46,0.00,BKN,,0.00,32.0,WeatherDisplay:10.37,2013-02-17 21:18:00,
2013-02-17 16:23:00,21.0,3.4,29.23,WNW,296,18.4,18.4,46,0.00,BKN,,0.00,26.0,WeatherDisplay:10.37,2013-02-17 21:23:00,
2013-02-17 16:28:00,20.8,3.7,29.23,SSW,209,19.6,19.6,47,0.00,BKN,,0.00,25.0,WeatherDisplay:10.37,2013-02-17 21:28:00,
2013-02-17 16:33:00,20.4,3.3,29.23,WNW,284,25.3,25.3,47,0.00,BKN,,0.00,21.0,WeatherDisplay:10.37,2013-02-17 21:33:00,
2013-02-17 16:38:00,20.2,3.2,29.23,WNW,290,15.0,15.0,47,0.00,BKN,,0.00,19.0,WeatherDisplay:10.37,2013-02-17 21:38:00,
2013-02-17 16:43:00,19.8,2.8,29.23,West,275,19.6,19.6,47,0.00,BKN,,0.00,16.0,WeatherDisplay:10.37,2013-02-17 21:43:00,
2013-02-17 16:48:00,19.7,3.2,29.23,NW,309,27.6,27.6,48,0.00,BKN,,0.00,12.0,WeatherDisplay:10.37,2013-02-17 21:48:00,
2013-02-17 16:53:00,19.3,3.2,29.23,WNW,290,20.7,20.7,49,0.00,BKN,,0.00,9.0,WeatherDisplay:10.37,2013-02-17 21:53:00,
2013-02-17 16:58:00,19.0,3.0,29.23,WNW,286,23.0,23.0,49,0.00,BKN,,0.00,7.0,WeatherDisplay:10.37,2013-02-17 21:58:00,
2013-02-17 17:03:00,18.7,2.7,29.23,WNW,293,29.9,29.9,49,0.00,BKN,,0.00,0.0,WeatherDisplay:10.37,2013-02-17 22:03:00,
2013-02-17 17:08:00,18.6,2.6,29.24,West,276,24.2,24.2,49,0.00,CLR,,0.00,0.0,WeatherDisplay:10.37,2013-02-17 22:08:00,
2013-02-17 17:13:00,18.5,2.5,29.24,WNW,295,22.0,22.0,49,0.00,CLR,,0.00,0.0,WeatherDisplay:10.37,2013-02-17 22:13:00,
2013-02-17 17:18:00,18.4,2.8,29.24,WSW,242,23.0,23.0,50,0.00,CLR,,0.00,0.0,WeatherDisplay:10.37,2013-02-17 22:18:00,
2013-02-17 17:23:00,18.3,2.3,29.25,West,259,24.2,24.2,49,0.00,CLR,,0.00,0.0,WeatherDisplay:10.37,2013-02-17 22:23:00,
2013-02-17 17:28:00,18.3,2.3,29.25,WNW,283,25.3,25.3,49,0.00,CLR,,0.00,0.0,WeatherDisplay:10.37,2013-02-17 22:28:00,
2013-02-17 17:33:00,18.4,2.8,29.25,WNW,286,19.6,19.6,50,0.00,CLR,,0.00,0.0,WeatherDisplay:10.37,2013-02-17 22:33:00,
2013-02-17 17:38:00,18.4,2.4,29.25,West,281,19.6,19.6,49,0.00,CLR,,0.00,0.0,WeatherDisplay:10.37,2013-02-17 22:38:00,
2013-02-17 17:43:00,18.5,3.4,29.25,WNW,294,26.5,26.5,51,0.00,CLR,,0.00,0.0,WeatherDisplay:10.37,2013-02-17 22:43:00,
2013-02-17 17:48:00,18.5,2.9,29.25,NW,304,21.9,21.9,50,0.00,CLR,,0.00,0.0,WeatherDisplay:10.37,2013-02-17 22:48:00,
2013-02-17 17:53:00,18.5,2.9,29.26,WNW,286,17.3,17.3,50,0.00,CLR,,0.00,0.0,WeatherDisplay:10.37,2013-02-17 22:53:00,
2013-02-17 17:58:00,18.6,3.0,29.26,NW,321,27.6,27.6,50,0.00,CLR,,0.00,0.0,WeatherDisplay:10.37,2013-02-17 22:58:00,
2013-02-17 18:03:00,18.7,3.5,29.26,West,269,33.4,33.4,51,0.00,CLR,,0.00,0.0,WeatherDisplay:10.37,2013-02-17 23:03:00,
2013-02-17 18:08:00,18.8,3.6,29.26,West,281,34.5,34.5,51,0.00,CLR,,0.00,0.0,WeatherDisplay:10.37,2013-02-17 23:08:00,
2013-02-17 18:14:00,18.7,3.5,29.26,NW,317,40.3,40.3,51,0.00,CLR,,0.00,0.0,WeatherDisplay:10.37,2013-02-17 23:14:00,
2013-02-17 18:19:00,18.7,4.0,29.26,West,264,25.3,25.3,52,0.00,CLR,,0.00,0.0,WeatherDisplay:10.37,2013-02-17 23:19:00,
2013-02-17 18:24:00,18.8,3.6,29.26,West,272,28.8,28.8,51,0.00,CLR,,0.00,0.0,WeatherDisplay:10.37,2013-02-17 23:24:00,
2013-02-17 18:29:00,18.8,3.6,29.26,West,281,22.0,22.0,51,0.00,CLR,,0.00,0.0,WeatherDisplay:10.37,2013-02-17 23:29:00,
2013-02-17 18:34:00,18.7,3.5,29.26,West,271,24.2,24.2,51,0.00,CLR,,0.00,0.0,WeatherDisplay:10.37,2013-02-17 23:34:00,
2013-02-17 18:39:00,18.5,4.6,29.26,NW,307,33.4,33.4,54,0.00,CLR,,0.00,0.0,WeatherDisplay:10.37,2013-02-17 23:39:00,
2013-02-17 18:44:00,18.5,4.2,29.26,West,269,25.3,25.3,53,0.00,CLR,,0.00,0.0,WeatherDisplay:10.37,2013-02-17 23:44:00,
2013-02-17 18:49:00,18.5,4.2,29.26,WNW,286,25.3,25.3,53,0.00,CLR,,0.00,0.0,WeatherDisplay:10.37,2013-02-17 23:49:00,
2013-02-17 18:54:00,18.6,4.3,29.26,WNW,290,19.6,19.6,53,0.00,CLR,,0.00,0.0,WeatherDisplay:10.37,2013-02-17 23:54:00,
2013-02-17 18:59:00,18.6,4.3,29.26,WNW,302,34.5,34.5,53,0.00,CLR,,0.00,0.0,WeatherDisplay:10.37,2013-02-17 23:59:00,
2013-02-17 19:04:00,18.7,4.4,29.26,WNW,290,26.5,26.5,53,0.00,CLR,,0.00,0.0,WeatherDisplay:10.37,2013-02-18 00:04:00,
2013-02-17 19:09:00,19.0,4.7,29.27,West,277,35.7,35.7,53,0.00,CLR,,0.00,0.0,WeatherDisplay:10.37,2013-02-18 00:09:00,
2013-02-17 19:14:00,19.3,4.5,29.27,WNW,285,21.9,21.9,52,0.00,CLR,,0.00,0.0,WeatherDisplay:10.37,2013-02-18 00:14:00,
2013-02-17 19:19:00,19.2,4.8,29.27,WSW,254,24.2,24.2,53,0.00,CLR,,0.00,0.0,WeatherDisplay:10.37,2013-02-18 00:19:00,
2013-02-17 19:24:00,19.3,4.5,29.28,WSW,241,36.8,36.8,52,0.00,CLR,,0.00,0.0,WeatherDisplay:10.37,2013-02-18 00:24:00,
2013-02-17 19:29:00,19.5,4.7,29.28,NW,313,29.9,29.9,52,0.00,CLR,,0.00,0.0,WeatherDisplay:10.37,2013-02-18 00:29:00,
2013-02-17 19:34:00,19.5,4.7,29.28,NNW,344,25.3,25.3,52,0.00,CLR,,0.00,0.0,WeatherDisplay:10.37,2013-02-18 00:34:00,
2013-02-17 19:39:00,19.5,4.7,29.28,NW,307,32.2,32.2,52,0.00,CLR,,0.00,0.0,WeatherDisplay:10.37,2013-02-18 00:39:00,
2013-02-17 19:44:00,19.7,4.9,29.28,West,271,26.5,26.5,52,0.00,CLR,,0.00,0.0,WeatherDisplay:10.37,2013-02-18 00:44:00,
2013-02-17 19:49:00,19.7,4.5,29.28,West,280,26.5,26.5,51,0.00,CLR,,0.00,0.0,WeatherDisplay:10.37,2013-02-18 00:49:00,
2013-02-17 19:54:00,19.7,4.5,29.29,NW,316,31.1,31.1,51,0.00,CLR,,0.00,0.0,WeatherDisplay:10.37,2013-02-18 00:54:00,
2013-02-17 19:59:00,19.7,4.5,29.29,West,280,19.6,19.6,51,0.00,CLR,,0.00,0.0,WeatherDisplay:10.37,2013-02-18 00:59:00,
2013-02-17 20:04:00,19.8,4.1,29.29,NNW,331,29.9,29.9,50,0.00,CLR,,0.00,0.0,WeatherDisplay:10.37,2013-02-18 01:04:00,
2013-02-17 20:09:00,20.2,4.5,29.29,West,281,31.1,31.1,50,0.00,CLR,,0.00,0.0,WeatherDisplay:10.37,2013-02-18 01:09:00,
2013-02-17 20:14:00,20.1,4.4,29.29,NW,310,26.5,26.5,50,0.00,CLR,,0.00,0.0,WeatherDisplay:10.37,2013-02-18 01:14:00,
2013-02-17 20:19:00,20.2,4.5,29.29,WNW,294,25.3,25.3,50,0.00,CLR,,0.00,0.0,WeatherDisplay:10.37,2013-02-18 01:19:00,
2013-02-17 20:24:00,20.2,4.5,29.30,NW,305,24.2,24.2,50,0.00,CLR,,0.00,0.0,WeatherDisplay:10.37,2013-02-18 01:24:00,
2013-02-17 20:29:00,20.3,4.2,29.30,WNW,296,21.9,21.9,49,0.00,CLR,,0.00,0.0,WeatherDisplay:10.37,2013-02-18 01:29:00,
2013-02-17 20:34:00,20.4,3.8,29.30,NW,311,21.9,21.9,48,0.00,CLR,,0.00,0.0,WeatherDisplay:10.37,2013-02-18 01:34:00,
2013-02-17 20:39:00,20.3,4.2,29.30,WNW,289,23.0,23.0,49,0.00,CLR,,0.00,0.0,WeatherDisplay:10.37,2013-02-18 01:39:00,
2013-02-17 20:44:00,20.3,4.2,29.30,West,280,21.9,21.9,49,0.00,CLR,,0.00,0.0,WeatherDisplay:10.37,2013-02-18 01:44:00,
2013-02-17 20:49:00,20.3,4.2,29.30,WNW,284,24.0,24.0,49,0.00,CLR,,0.00,0.0,WeatherDisplay:10.37,2013-02-18 01:49:00,
2013-02-17 20:54:00,20.1,4.4,29.32,WNW,287,21.0,21.0,50,0.00,CLR,,0.00,0.0,WeatherDisplay:10.37,2013-02-18 01:54:00,
2013-02-17 20:59:00,20.2,4.1,29.32,WNW,299,19.6,19.6,49,0.00,CLR,,0.00,0.0,WeatherDisplay:10.37,2013-02-18 01:59:00,
2013-02-17 21:04:00,20.1,4.4,29.32,West,266,26.5,26.5,50,0.00,CLR,,0.00,0.0,WeatherDisplay:10.37,2013-02-18 02:04:00,
2013-02-17 21:09:00,19.9,4.2,29.33,WSW,242,28.8,28.8,50,0.00,CLR,,0.00,0.0,WeatherDisplay:10.37,2013-02-18 02:09:00,
2013-02-17 21:14:00,19.8,4.1,29.33,WNW,287,24.2,24.2,50,0.00,CLR,,0.00,0.0,WeatherDisplay:10.37,2013-02-18 02:14:00,
2013-02-17 21:19:00,19.8,3.7,29.33,NW,315,24.0,24.0,49,0.00,CLR,,0.00,0.0,WeatherDisplay:10.37,2013-02-18 02:19:00,
2013-02-17 21:24:00,19.7,3.6,29.34,WNW,303,26.5,26.5,49,0.00,CLR,,0.00,0.0,WeatherDisplay:10.37,2013-02-18 02:24:00,
2013-02-17 21:29:00,19.7,3.6,29.34,WNW,298,24.2,24.2,49,0.00,CLR,,0.00,0.0,WeatherDisplay:10.37,2013-02-18 02:29:00,
2013-02-17 21:34:00,19.7,4.0,29.34,WNW,294,19.6,19.6,50,0.00,CLR,,0.00,0.0,WeatherDisplay:10.37,2013-02-18 02:34:00,
2013-02-17 21:39:00,19.7,3.2,29.34,WNW,290,25.3,25.3,48,0.00,CLR,,0.00,0.0,WeatherDisplay:10.37,2013-02-18 02:39:00,
2013-02-17 21:44:00,19.7,3.6,29.34,NW,305,18.4,18.4,49,0.00,CLR,,0.00,0.0,WeatherDisplay:10.37,2013-02-18 02:44:00,
2013-02-17 21:49:00,19.7,3.6,29.34,WNW,286,17.3,17.3,49,0.00,CLR,,0.00,0.0,WeatherDisplay:10.37,2013-02-18 02:49:00,
2013-02-17 21:54:00,19.6,3.5,29.35,WSW,253,26.5,26.5,49,0.00,CLR,,0.00,0.0,WeatherDisplay:10.37,2013-02-18 02:54:00,
2013-02-17 21:59:00,19.6,3.5,29.35,WNW,290,26.5,26.5,49,0.00,CLR,,0.00,0.0,WeatherDisplay:10.37,2013-02-18 02:59:00,
2013-02-17 22:04:00,19.6,3.5,29.35,WNW,292,20.7,20.7,49,0.00,CLR,,0.00,0.0,WeatherDisplay:10.37,2013-02-18 03:04:00,
2013-02-17 22:09:00,19.5,3.4,29.35,WNW,287,18.4,18.4,49,0.00,CLR,,0.00,0.0,WeatherDisplay:10.37,2013-02-18 03:09:00,
2013-02-17 22:14:00,19.4,3.3,29.35,WNW,284,21.9,21.9,49,0.00,CLR,,0.00,0.0,WeatherDisplay:10.37,2013-02-18 03:14:00,
2013-02-17 22:19:00,19.3,3.2,29.35,WNW,292,13.0,13.0,49,0.00,CLR,,0.00,0.0,WeatherDisplay:10.37,2013-02-18 03:19:00,
2013-02-17 22:24:00,19.2,3.1,29.36,West,274,19.6,19.6,49,0.00,CLR,,0.00,0.0,WeatherDisplay:10.37,2013-02-18 03:24:00,
2013-02-17 22:29:00,19.1,3.0,29.36,West,279,17.3,17.3,49,0.00,CLR,,0.00,0.0,WeatherDisplay:10.37,2013-02-18 03:29:00,
2013-02-17 22:34:00,19.0,3.0,29.36,WNW,285,21.0,21.0,49,0.00,CLR,,0.00,0.0,WeatherDisplay:10.37,2013-02-18 03:34:00,
2013-02-17 22:39:00,18.9,2.9,29.36,WNW,292,19.6,19.6,49,0.00,CLR,,0.00,0.0,WeatherDisplay:10.37,2013-02-18 03:39:00,
2013-02-17 22:44:00,18.9,2.9,29.36,West,265,29.9,29.9,49,0.00,CLR,,0.00,0.0,WeatherDisplay:10.37,2013-02-18 03:44:00,
2013-02-17 22:49:00,18.9,3.3,29.36,NW,311,26.5,26.5,50,0.00,CLR,,0.00,0.0,WeatherDisplay:10.37,2013-02-18 03:49:00,
2013-02-17 22:54:00,18.8,2.8,29.36,West,274,18.4,18.4,49,0.00,CLR,,0.00,0.0,WeatherDisplay:10.37,2013-02-18 03:54:00,
2013-02-17 22:59:00,18.8,3.2,29.36,West,267,15.0,15.0,50,0.00,CLR,,0.00,0.0,WeatherDisplay:10.37,2013-02-18 03:59:00,
2013-02-17 23:04:00,18.8,2.8,29.36,West,280,23.0,23.0,49,0.00,CLR,,0.00,0.0,WeatherDisplay:10.37,2013-02-18 04:04:00,
2013-02-17 23:09:00,18.7,2.7,29.38,WSW,257,20.7,20.7,49,0.00,CLR,,0.00,0.0,WeatherDisplay:10.37,2013-02-18 04:09:00,
2013-02-17 23:14:00,18.6,2.6,29.38,West,273,15.0,15.0,49,0.00,CLR,,0.00,0.0,WeatherDisplay:10.37,2013-02-18 04:14:00,
2013-02-17 23:19:00,18.5,2.9,29.38,WNW,286,12.7,12.7,50,0.00,CLR,,0.00,0.0,WeatherDisplay:10.37,2013-02-18 04:19:00,
2013-02-17 23:24:00,18.5,2.9,29.38,WNW,290,12.7,12.7,50,0.00,CLR,,0.00,0.0,WeatherDisplay:10.37,2013-02-18 04:24:00,
2013-02-17 23:29:00,18.5,2.9,29.38,NW,311,10.0,10.0,50,0.00,CLR,,0.00,0.0,WeatherDisplay:10.37,2013-02-18 04:29:00,
2013-02-17 23:34:00,18.4,2.8,29.38,West,269,15.0,15.0,50,0.00,CLR,,0.00,0.0,WeatherDisplay:10.37,2013-02-18 04:34:00,
2013-02-17 23:39:00,18.4,2.8,29.39,WNW,294,14.0,14.0,50,0.00,CLR,,0.00,0.0,WeatherDisplay:10.37,2013-02-18 04:39:00,
2013-02-17 23:44:00,18.4,2.8,29.39,West,277,10.4,10.4,50,0.00,CLR,,0.00,0.0,WeatherDisplay:10.37,2013-02-18 04:44:00,
2013-02-17 23:49:00,18.3,2.7,29.39,West,278,6.9,6.9,50,0.00,CLR,,0.00,0.0,WeatherDisplay:10.37,2013-02-18 04:49:00,
2013-02-17 23:54:00,18.3,3.2,29.39,West,276,12.7,13.1,51,0.00,CLR,,0.00,0.0,WeatherDisplay:10.37,2013-02-18 04:54:00,
2013-02-17 23:59:00,18.3,3.2,29.39,West,279,9.2,9.2,51,0.00,CLR,,0.00,0.0,WeatherDisplay:10.37,2013-02-18 04:59:00,